Time;durP1;ratioP1;P1;durP2;ratioP2;P2;SDS_P1;SDS_P2;PMS_P1;PMS_P2;Temp;Humidity;BMP_temperature;BMP_pressure;BME280_temperature;BME280_humidity;BME280_pressure;Samples;Min_cycle;Max_cycle;Signal;HPM_P1;HPM_P2
2022/11/25 00:01:54;;;;;;;0.70;0.70;;;4.10;99.90;;;;;;5136890;27;20962;-80
2022/11/25 00:04:20;;;;;;;0.30;0.30;;;4.10;99.90;;;;;;5136739;27;20811;-80
2022/11/25 00:06:47;;;;;;;0.63;0.40;;;4.10;99.90;;;;;;5137066;27;20447;-80
2022/11/25 00:09:14;;;;;;;1.53;0.73;;;4.10;99.90;;;;;;5137003;27;20446;-80
2022/11/25 00:11:42;;;;;;;0.40;0.30;;;4.10;99.90;;;;;;5136976;27;20450;-80
2022/11/25 00:14:14;;;;;;;0.67;0.67;;;4.10;99.90;;;;;;5136562;27;21012;-80
2022/11/25 00:16:41;;;;;;;0.40;0.30;;;4.10;99.90;;;;;;5136138;27;20431;-80
2022/11/25 00:19:09;;;;;;;0.33;0.33;;;4.10;99.90;;;;;;5136600;27;20482;-80
2022/11/25 00:21:36;;;;;;;0.40;0.40;;;4.00;99.90;;;;;;5136533;27;20917;-80
2022/11/25 00:24:04;;;;;;;0.30;0.30;;;4.10;99.90;;;;;;5136688;27;20463;-80
2022/11/25 00:26:33;;;;;;;0.43;0.40;;;4.10;99.90;;;;;;5136721;27;20447;-80
2022/11/25 00:29:01;;;;;;;1.40;0.73;;;4.10;99.90;;;;;;5136650;27;20461;-80
2022/11/25 00:31:31;;;;;;;3.83;0.50;;;4.10;99.90;;;;;;5136608;27;20457;-80
2022/11/25 00:33:58;;;;;;;0.30;0.30;;;4.20;99.90;;;;;;5136489;27;20455;-80
2022/11/25 00:36:27;;;;;;;0.40;0.33;;;4.20;99.90;;;;;;5136497;27;20473;-80
2022/11/25 00:38:56;;;;;;;0.47;0.47;;;4.30;99.90;;;;;;5136394;27;20497;-80
2022/11/25 00:46:55;;;;;;;0.40;0.40;;;4.40;99.90;;;;;;5136703;27;20414;-79
2022/11/25 00:49:22;;;;;;;0.90;0.40;;;4.40;99.90;;;;;;5136273;27;20443;-80
2022/11/25 00:51:49;;;;;;;0.40;0.40;;;4.40;99.90;;;;;;5136239;27;20450;-80
2022/11/25 00:54:16;;;;;;;0.30;0.30;;;4.40;99.90;;;;;;5136124;27;20469;-80
2022/11/25 00:56:43;;;;;;;2.00;0.60;;;4.50;99.90;;;;;;5135807;27;20965;-80
2022/11/25 00:59:09;;;;;;;0.40;0.30;;;4.50;99.90;;;;;;5136054;27;20505;-79
2022/11/25 01:01:37;;;;;;;0.30;0.20;;;4.50;99.90;;;;;;5136039;27;20447;-79
2022/11/25 01:04:05;;;;;;;0.67;0.67;;;4.50;99.90;;;;;;5135880;27;20836;-79
2022/11/25 01:06:33;;;;;;;0.40;0.37;;;4.50;99.90;;;;;;5135906;27;20447;-79
2022/11/25 01:09:00;;;;;;;1.37;0.43;;;4.50;99.90;;;;;;5135860;27;20465;-80
2022/11/25 01:11:26;;;;;;;0.30;0.30;;;4.50;99.90;;;;;;5135857;27;20464;-80
2022/11/25 01:13:55;;;;;;;0.60;0.60;;;4.60;99.90;;;;;;5135701;27;20473;-80
2022/11/25 01:16:22;;;;;;;0.30;0.30;;;4.60;99.90;;;;;;5135714;27;20465;-79
2022/11/25 01:18:50;;;;;;;0.37;0.33;;;4.60;99.90;;;;;;5135435;27;20479;-80
2022/11/25 01:21:21;;;;;;;0.30;0.30;;;4.60;99.90;;;;;;5135369;27;20464;-80
2022/11/25 01:23:49;;;;;;;0.30;0.30;;;4.70;99.90;;;;;;5135493;27;20470;-80
2022/11/25 01:26:17;;;;;;;0.80;0.37;;;4.60;99.90;;;;;;5135522;27;20439;-79
2022/11/25 01:28:44;;;;;;;0.60;0.50;;;4.70;99.90;;;;;;5134047;27;21101;-80
2022/11/25 01:31:14;;;;;;;0.30;0.30;;;4.80;99.90;;;;;;5135117;27;20443;-80
2022/11/25 01:33:42;;;;;;;0.50;0.50;;;4.70;99.90;;;;;;5135302;27;20569;-80
2022/11/25 01:36:10;;;;;;;0.90;0.80;;;4.80;99.90;;;;;;5135040;27;20960;-80
2022/11/25 01:38:40;;;;;;;0.40;0.40;;;4.70;99.90;;;;;;5134880;27;20849;-79
2022/11/25 01:41:08;;;;;;;0.30;0.20;;;4.70;99.90;;;;;;5135478;27;20445;-80
2022/11/25 01:43:36;;;;;;;1.23;0.60;;;4.70;99.90;;;;;;5135105;27;20443;-79
2022/11/25 01:46:09;;;;;;;1.17;0.60;;;4.70;99.90;;;;;;5135195;27;20443;-80
2022/11/25 01:48:41;;;;;;;0.40;0.40;;;4.70;99.90;;;;;;5135148;27;20426;-80
2022/11/25 01:51:17;;;;;;;0.60;0.60;;;4.70;99.90;;;;;;5135365;27;20757;-79
2022/11/25 01:53:46;;;;;;;0.50;0.30;;;4.70;99.90;;;;;;5134683;27;20531;-79
2022/11/25 01:56:13;;;;;;;0.50;0.50;;;4.70;99.90;;;;;;5134922;27;20481;-79
2022/11/25 01:58:41;;;;;;;0.47;0.37;;;4.70;99.90;;;;;;5134886;27;20517;-80
2022/11/25 02:01:08;;;;;;;0.40;0.40;;;4.80;99.90;;;;;;5134572;27;20483;-79
2022/11/25 02:03:41;;;;;;;0.40;0.30;;;4.80;99.90;;;;;;5134797;27;20887;-80
2022/11/25 02:06:13;;;;;;;0.40;0.30;;;4.80;99.90;;;;;;5134843;27;20459;-80
2022/11/25 02:08:41;;;;;;;0.60;0.50;;;4.80;99.90;;;;;;5134447;27;20926;-80
2022/11/25 02:11:10;;;;;;;1.60;1.50;;;4.80;99.90;;;;;;5134422;27;20486;-79
2022/11/25 02:13:37;;;;;;;1.30;0.40;;;4.80;99.90;;;;;;5134589;27;20534;-80
2022/11/25 02:16:05;;;;;;;0.40;0.40;;;4.80;99.90;;;;;;5134675;27;20478;-79
2022/11/25 02:18:32;;;;;;;1.13;0.80;;;4.80;99.90;;;;;;5134519;27;20556;-79
2022/11/25 02:20:59;;;;;;;0.40;0.37;;;4.70;99.90;;;;;;5134605;27;20878;-79
2022/11/25 02:23:33;;;;;;;0.83;0.50;;;4.70;99.90;;;;;;5134152;27;20478;-79
2022/11/25 02:26:02;;;;;;;0.30;0.30;;;4.70;99.90;;;;;;5134277;27;20926;-79
2022/11/25 02:28:32;;;;;;;0.40;0.40;;;4.60;99.90;;;;;;5134490;27;20517;-79
2022/11/25 02:30:59;;;;;;;0.40;0.30;;;4.60;99.90;;;;;;5134444;27;20517;-79
2022/11/25 02:33:27;;;;;;;0.40;0.30;;;4.60;99.90;;;;;;5134356;27;20478;-79
2022/11/25 02:35:57;;;;;;;0.40;0.40;;;4.60;99.90;;;;;;5134116;27;20443;-79
2022/11/25 02:38:27;;;;;;;0.40;0.40;;;4.50;99.90;;;;;;5133823;27;20894;-80
2022/11/25 02:40:59;;;;;;;0.40;0.40;;;4.40;99.90;;;;;;5134355;27;20431;-79
2022/11/25 02:43:28;;;;;;;0.40;0.40;;;4.40;99.90;;;;;;5134316;27;20431;-79
2022/11/25 02:46:00;;;;;;;0.40;0.40;;;4.30;99.90;;;;;;5134325;27;20442;-79
2022/11/25 02:48:29;;;;;;;0.73;0.47;;;4.30;99.90;;;;;;5134292;27;20470;-79
2022/11/25 02:50:56;;;;;;;0.97;0.40;;;4.30;99.90;;;;;;5134361;27;20799;-80
2022/11/25 02:53:24;;;;;;;0.40;0.40;;;4.30;99.90;;;;;;5134222;27;20443;-80
2022/11/25 02:55:51;;;;;;;1.13;0.50;;;4.30;99.90;;;;;;5134229;27;20443;-79
2022/11/25 02:58:18;;;;;;;0.53;0.53;;;4.20;99.90;;;;;;5134159;27;20442;-79
2022/11/25 03:00:48;;;;;;;0.60;0.50;;;4.20;99.90;;;;;;5134221;27;20439;-80
2022/11/25 03:03:15;;;;;;;0.50;0.50;;;4.10;99.90;;;;;;5133850;27;20825;-79
2022/11/25 03:05:42;;;;;;;0.30;0.30;;;4.10;99.90;;;;;;5133782;27;20851;-80
2022/11/25 03:08:10;;;;;;;0.30;0.30;;;4.10;99.90;;;;;;5134138;27;20443;-79
2022/11/25 03:10:37;;;;;;;0.97;0.57;;;4.10;99.90;;;;;;5134096;27;20438;-80
2022/11/25 03:13:04;;;;;;;0.30;0.30;;;4.10;99.90;;;;;;5134053;27;20444;-79
2022/11/25 03:15:31;;;;;;;0.30;0.30;;;4.20;99.90;;;;;;5133712;27;20469;-80
2022/11/25 03:17:59;;;;;;;0.30;0.30;;;4.20;99.90;;;;;;5133738;27;20447;-80
2022/11/25 03:20:26;;;;;;;0.40;0.40;;;4.20;99.90;;;;;;5133441;27;21008;-79
2022/11/25 03:22:53;;;;;;;0.40;0.40;;;4.20;99.90;;;;;;5134008;27;20822;-80
2022/11/25 03:25:20;;;;;;;0.50;0.47;;;4.20;99.90;;;;;;5133921;27;20465;-80
2022/11/25 03:27:47;;;;;;;0.43;0.40;;;4.20;99.90;;;;;;5133928;27;20454;-80
2022/11/25 03:30:16;;;;;;;0.50;0.50;;;4.30;99.90;;;;;;5133924;27;20448;-80
2022/11/25 03:32:43;;;;;;;0.30;0.30;;;4.30;99.90;;;;;;5134165;27;20450;-80
2022/11/25 03:35:11;;;;;;;0.40;0.40;;;4.30;99.90;;;;;;5134046;27;20470;-80
2022/11/25 03:37:39;;;;;;;0.50;0.40;;;4.40;99.90;;;;;;5133862;27;20438;-79
2022/11/25 03:40:07;;;;;;;15.13;1.07;;;4.40;99.90;;;;;;5133822;27;20463;-79
2022/11/25 03:42:34;;;;;;;0.30;0.30;;;4.40;99.90;;;;;;5133814;27;20443;-80
2022/11/25 03:45:01;;;;;;;0.40;0.30;;;4.30;99.90;;;;;;5133390;27;20996;-80
2022/11/25 03:47:28;;;;;;;0.40;0.40;;;4.30;99.90;;;;;;5133786;27;20822;-79
2022/11/25 03:49:55;;;;;;;2.60;0.57;;;4.30;99.90;;;;;;5133425;27;20811;-79
2022/11/25 03:52:23;;;;;;;0.30;0.30;;;4.30;99.90;;;;;;5136107;27;20957;-79
2022/11/25 03:54:50;;;;;;;0.70;0.70;;;4.30;99.90;;;;;;5137271;27;20462;-80
2022/11/25 03:57:17;;;;;;;0.93;0.53;;;4.20;99.90;;;;;;5137283;27;20442;-80
2022/11/25 03:59:45;;;;;;;0.43;0.43;;;4.20;99.90;;;;;;5137396;27;20479;-80
2022/11/25 04:02:13;;;;;;;0.50;0.47;;;4.10;99.90;;;;;;5137495;27;20439;-79
2022/11/25 04:04:39;;;;;;;0.30;0.30;;;4.00;99.90;;;;;;5137382;27;20463;-79
2022/11/25 04:07:06;;;;;;;1.90;0.73;;;4.10;99.90;;;;;;5137081;27;20938;-80
2022/11/25 04:09:34;;;;;;;1.33;1.33;;;4.10;99.90;;;;;;5137104;27;20439;-79
2022/11/25 04:14:45;;;;;;;0.40;0.40;;;4.10;99.90;;;;;;5136736;27;20440;-80
2022/11/25 04:17:12;;;;;;;0.40;0.40;;;4.00;99.90;;;;;;5136936;27;20445;-80
2022/11/25 04:19:39;;;;;;;0.40;0.30;;;4.00;99.90;;;;;;5136504;27;20494;-80
2022/11/25 04:22:06;;;;;;;0.50;0.47;;;4.00;99.90;;;;;;5136829;27;20445;-80
2022/11/25 04:24:34;;;;;;;0.30;0.30;;;4.00;99.90;;;;;;5136984;27;20469;-79
2022/11/25 04:27:01;;;;;;;6.03;0.60;;;4.10;99.90;;;;;;5136444;27;20451;-79
2022/11/25 04:29:27;;;;;;;5.00;1.00;;;4.10;99.90;;;;;;5136687;27;20439;-80
2022/11/25 04:31:54;;;;;;;2.23;0.77;;;4.10;99.90;;;;;;5136658;27;20438;-80
2022/11/25 04:34:21;;;;;;;0.30;0.30;;;4.10;99.90;;;;;;5136533;27;20465;-79
2022/11/25 04:36:48;;;;;;;0.60;0.60;;;4.10;99.90;;;;;;5136581;27;20447;-79
2022/11/25 04:39:14;;;;;;;0.30;0.30;;;4.10;99.90;;;;;;5136723;27;20451;-79
2022/11/25 04:41:43;;;;;;;0.50;0.33;;;4.20;99.90;;;;;;5136163;27;20951;-79
2022/11/25 04:44:10;;;;;;;0.40;0.30;;;4.10;99.90;;;;;;5136364;27;20463;-80
2022/11/25 04:46:40;;;;;;;0.73;0.30;;;4.10;99.90;;;;;;5136355;27;20450;-79
2022/11/25 04:49:07;;;;;;;0.60;0.60;;;4.20;99.90;;;;;;5136293;27;20476;-79
2022/11/25 04:51:34;;;;;;;0.40;0.30;;;4.10;99.90;;;;;;5136245;27;20450;-79
2022/11/25 04:54:00;;;;;;;0.80;0.80;;;4.20;99.90;;;;;;5135859;27;20471;-79
2022/11/25 04:56:27;;;;;;;1.23;0.73;;;4.20;99.90;;;;;;5136167;27;20794;-79
2022/11/25 05:01:39;;;;;;;0.70;0.70;;;4.10;99.90;;;;;;5135817;27;20407;-79
2022/11/25 05:04:06;;;;;;;0.50;0.50;;;4.10;99.90;;;;;;5136006;27;20470;-80
2022/11/25 05:06:33;;;;;;;0.60;0.60;;;4.10;99.90;;;;;;5136222;27;20454;-79
2022/11/25 05:09:00;;;;;;;0.50;0.50;;;4.10;99.90;;;;;;5135917;27;20439;-79
2022/11/25 05:11:27;;;;;;;0.30;0.30;;;4.00;99.90;;;;;;5135857;27;20449;-79
2022/11/25 05:13:55;;;;;;;1.53;0.43;;;4.00;99.90;;;;;;5135721;27;20531;-80
2022/11/25 05:16:21;;;;;;;1.47;0.77;;;4.00;99.90;;;;;;5135922;27;20446;-79
2022/11/25 05:18:48;;;;;;;0.40;0.40;;;4.00;99.90;;;;;;5135526;27;20439;-79
2022/11/25 05:21:15;;;;;;;0.40;0.40;;;3.90;99.90;;;;;;5135659;27;20467;-79
2022/11/25 05:23:42;;;;;;;0.40;0.30;;;4.00;99.90;;;;;;5135797;27;20439;-80
2022/11/25 05:26:08;;;;;;;1.30;0.90;;;3.90;99.90;;;;;;5135563;27;20435;-80
2022/11/25 05:28:35;;;;;;;0.40;0.40;;;3.90;99.90;;;;;;5135457;27;20877;-80
2022/11/25 05:31:03;;;;;;;0.60;0.40;;;4.00;99.90;;;;;;5135475;27;20457;-79
2022/11/25 05:33:30;;;;;;;0.30;0.30;;;4.00;99.90;;;;;;5135329;27;20442;-79
2022/11/25 05:35:59;;;;;;;0.40;0.40;;;3.90;99.90;;;;;;5135350;27;20458;-79
2022/11/25 05:38:26;;;;;;;0.53;0.50;;;3.90;99.90;;;;;;5135286;27;20442;-80
2022/11/25 05:40:53;;;;;;;0.40;0.37;;;3.90;99.90;;;;;;5134932;27;21009;-80
2022/11/25 05:43:21;;;;;;;0.37;0.33;;;3.80;99.90;;;;;;5135246;27;20447;-79
2022/11/25 05:45:47;;;;;;;0.40;0.40;;;3.80;99.90;;;;;;5135105;27;20510;-79
2022/11/25 05:48:16;;;;;;;1.67;1.57;;;3.80;99.90;;;;;;5134841;27;20938;-79
2022/11/25 05:50:42;;;;;;;0.40;0.40;;;3.80;99.90;;;;;;5134775;27;20813;-79
2022/11/25 05:53:10;;;;;;;0.40;0.40;;;3.80;99.90;;;;;;5135142;27;20454;-79
2022/11/25 05:55:37;;;;;;;2.40;0.97;;;3.90;99.90;;;;;;5135383;27;20463;-79
2022/11/25 05:58:05;;;;;;;0.30;0.27;;;3.90;99.90;;;;;;5134918;27;20439;-79
2022/11/25 06:00:32;;;;;;;1.50;0.70;;;3.80;99.90;;;;;;5134944;27;20474;-79
2022/11/25 06:02:59;;;;;;;0.70;0.70;;;3.80;99.90;;;;;;5134991;27;20929;-79
2022/11/25 06:05:27;;;;;;;0.30;0.30;;;3.80;99.90;;;;;;5135152;27;20527;-79
2022/11/25 06:07:54;;;;;;;0.40;0.40;;;3.70;99.90;;;;;;5135165;27;20815;-79
2022/11/25 06:10:20;;;;;;;1.50;0.50;;;3.70;99.90;;;;;;5135378;27;20442;-79
2022/11/25 06:12:48;;;;;;;0.30;0.30;;;3.70;99.90;;;;;;5135459;27;20445;-79
2022/11/25 06:15:14;;;;;;;0.40;0.40;;;3.70;99.90;;;;;;5134499;27;20540;-79
2022/11/25 06:17:41;;;;;;;0.30;0.30;;;3.60;99.90;;;;;;5135252;27;20443;-79
2022/11/25 06:20:09;;;;;;;0.30;0.30;;;3.60;99.90;;;;;;5134815;27;21015;-79
2022/11/25 06:22:37;;;;;;;0.50;0.40;;;3.60;99.90;;;;;;5135141;27;20449;-79
2022/11/25 06:25:05;;;;;;;0.30;0.30;;;3.60;99.90;;;;;;5135251;27;20459;-79
2022/11/25 06:27:32;;;;;;;0.40;0.30;;;3.50;99.90;;;;;;5134691;27;20938;-78
2022/11/25 06:29:59;;;;;;;0.40;0.30;;;3.50;99.90;;;;;;5135305;27;20443;-79
2022/11/25 06:32:25;;;;;;;0.50;0.50;;;3.50;99.90;;;;;;5135406;27;20443;-79
2022/11/25 06:34:52;;;;;;;0.40;0.40;;;3.50;99.90;;;;;;5135072;27;20463;-79
2022/11/25 06:37:19;;;;;;;0.53;0.53;;;3.50;99.90;;;;;;5135211;27;20449;-79
2022/11/25 06:39:47;;;;;;;0.80;0.80;;;3.50;99.90;;;;;;5135066;27;20474;-79
2022/11/25 06:42:14;;;;;;;0.30;0.30;;;3.50;99.90;;;;;;5134566;27;20438;-79
2022/11/25 06:44:40;;;;;;;1.40;0.30;;;3.50;99.90;;;;;;5134627;27;21028;-79
2022/11/25 06:47:07;;;;;;;1.23;0.50;;;3.50;99.90;;;;;;5134333;27;20446;-79
2022/11/25 06:49:34;;;;;;;0.93;0.83;;;3.60;99.90;;;;;;5134250;27;20960;-79
2022/11/25 06:52:01;;;;;;;0.30;0.30;;;3.70;99.90;;;;;;5134232;27;20949;-79
2022/11/25 06:54:27;;;;;;;2.47;1.83;;;3.70;99.90;;;;;;5134470;27;20906;-79
2022/11/25 06:56:55;;;;;;;0.87;0.87;;;3.80;99.90;;;;;;5134459;27;20931;-79
2022/11/25 06:59:23;;;;;;;0.30;0.30;;;3.90;99.90;;;;;;5134258;27;20968;-79
2022/11/25 07:01:50;;;;;;;0.40;0.33;;;4.00;99.90;;;;;;5134354;27;20481;-79
2022/11/25 07:04:16;;;;;;;0.30;0.30;;;4.10;99.90;;;;;;5134170;27;20540;-79
2022/11/25 07:06:43;;;;;;;1.17;0.40;;;4.10;99.90;;;;;;5134302;27;20930;-79
2022/11/25 07:09:10;;;;;;;1.80;0.70;;;4.20;99.90;;;;;;5134247;27;20938;-79
2022/11/25 07:11:41;;;;;;;0.30;0.30;;;4.30;99.90;;;;;;5134022;27;20934;-79
2022/11/25 07:14:13;;;;;;;0.37;0.33;;;4.40;99.90;;;;;;5134042;27;20997;-79
2022/11/25 07:16:42;;;;;;;0.40;0.40;;;4.50;99.90;;;;;;5134407;27;20431;-79
2022/11/25 07:19:10;;;;;;;0.60;0.47;;;4.60;99.90;;;;;;5134156;27;20478;-79
2022/11/25 07:21:37;;;;;;;1.13;0.40;;;4.70;99.90;;;;;;5134801;27;20485;-80
2022/11/25 07:24:06;;;;;;;0.40;0.30;;;4.70;99.90;;;;;;5134239;27;20470;-79
2022/11/25 07:26:35;;;;;;;0.30;0.30;;;4.80;99.90;;;;;;5137342;27;20451;-83
2022/11/25 07:29:04;;;;;;;0.70;0.40;;;4.80;99.90;;;;;;5137882;27;20462;-79
2022/11/25 07:31:34;;;;;;;0.40;0.30;;;4.90;99.90;;;;;;5137871;27;20508;-79
2022/11/25 07:34:02;;;;;;;0.40;0.40;;;5.00;99.90;;;;;;5137414;27;20469;-79
2022/11/25 07:36:31;;;;;;;0.40;0.40;;;5.00;99.90;;;;;;5137762;27;20439;-79
2022/11/25 07:38:58;;;;;;;0.40;0.40;;;5.10;99.90;;;;;;5137729;27;20431;-79
2022/11/25 07:41:27;;;;;;;0.30;0.30;;;5.30;99.90;;;;;;5137577;27;20482;-79
2022/11/25 07:43:55;;;;;;;0.30;0.30;;;5.20;99.90;;;;;;5137497;27;20463;-80
2022/11/25 07:46:24;;;;;;;0.40;0.40;;;5.30;99.90;;;;;;5137569;27;20447;-79
2022/11/25 07:48:54;;;;;;;0.37;0.37;;;5.20;99.90;;;;;;5137500;27;20450;-79
2022/11/25 07:51:23;;;;;;;0.30;0.30;;;5.30;99.90;;;;;;5137107;27;20933;-78
2022/11/25 07:53:50;;;;;;;0.40;0.40;;;5.30;99.90;;;;;;5136979;27;20481;-79
2022/11/25 07:56:18;;;;;;;0.83;0.67;;;5.30;99.90;;;;;;5137334;27;20446;-79
2022/11/25 07:58:45;;;;;;;0.40;0.40;;;5.40;99.90;;;;;;5137268;27;20814;-79
2022/11/25 08:01:15;;;;;;;0.40;0.40;;;5.40;99.90;;;;;;5136868;27;20993;-79
2022/11/25 08:03:43;;;;;;;0.33;0.27;;;5.40;99.90;;;;;;5138678;27;21078;-79
2022/11/25 08:06:14;;;;;;;0.93;0.40;;;5.40;99.90;;;;;;5140923;27;20439;-79
2022/11/25 08:08:42;;;;;;;0.70;0.40;;;5.40;99.90;;;;;;5136728;27;20435;-79
2022/11/25 08:11:11;;;;;;;0.40;0.30;;;5.40;99.90;;;;;;5137029;27;20435;-79
2022/11/25 08:13:38;;;;;;;0.60;0.57;;;5.40;99.90;;;;;;5136897;27;20443;-79
2022/11/25 08:16:06;;;;;;;0.97;0.50;;;5.40;99.90;;;;;;5136977;27;20443;-79
2022/11/25 08:18:33;;;;;;;0.40;0.37;;;5.40;99.90;;;;;;5136792;27;20453;-79
2022/11/25 08:21:00;;;;;;;0.47;0.47;;;5.40;99.90;;;;;;5136798;27;20547;-79
2022/11/25 08:23:29;;;;;;;0.57;0.37;;;5.50;99.90;;;;;;5136469;27;20430;-79
2022/11/25 08:25:55;;;;;;;0.60;0.60;;;5.50;99.90;;;;;;5136823;27;20454;-79
2022/11/25 08:28:22;;;;;;;0.63;0.63;;;5.60;99.90;;;;;;5136744;27;20443;-79
2022/11/25 08:30:50;;;;;;;1.10;1.07;;;5.60;99.90;;;;;;5136668;27;20442;-79
2022/11/25 08:33:16;;;;;;;0.90;0.90;;;5.70;99.90;;;;;;5136634;27;20450;-79
2022/11/25 08:35:43;;;;;;;2.17;0.80;;;5.80;99.90;;;;;;5136429;27;20469;-79
2022/11/25 08:38:12;;;;;;;0.60;0.40;;;5.90;99.90;;;;;;5135828;27;20449;-79
2022/11/25 08:40:45;;;;;;;2.20;0.47;;;6.00;99.90;;;;;;5136367;27;20478;-79
2022/11/25 08:43:12;;;;;;;0.30;0.30;;;6.20;99.90;;;;;;5136448;27;20428;-79
2022/11/25 08:45:40;;;;;;;0.30;0.30;;;6.30;99.90;;;;;;5135972;27;20977;-79
2022/11/25 08:48:07;;;;;;;1.50;0.63;;;6.40;99.90;;;;;;5136338;27;20449;-79
2022/11/25 08:50:34;;;;;;;0.50;0.50;;;6.50;99.90;;;;;;5136269;27;20438;-79
2022/11/25 08:53:01;;;;;;;0.30;0.30;;;6.70;99.90;;;;;;5136269;27;20447;-79
2022/11/25 08:55:28;;;;;;;0.40;0.30;;;6.70;99.90;;;;;;5135828;27;20973;-79
2022/11/25 08:57:56;;;;;;;0.80;0.40;;;6.70;99.90;;;;;;5135960;27;20447;-79
2022/11/25 09:00:23;;;;;;;0.40;0.40;;;6.60;99.90;;;;;;5136801;27;20482;-79
2022/11/25 09:02:50;;;;;;;0.70;0.43;;;6.70;99.90;;;;;;5136060;27;20814;-79
2022/11/25 09:05:17;;;;;;;1.93;0.50;;;6.70;99.90;;;;;;5135875;27;20553;-79
2022/11/25 09:07:44;;;;;;;1.27;0.80;;;6.80;99.90;;;;;;5135910;27;20443;-79
2022/11/25 09:10:15;;;;;;;0.50;0.50;;;6.80;99.90;;;;;;5135920;27;20435;-79
2022/11/25 09:12:42;;;;;;;1.70;0.50;;;6.80;99.90;;;;;;5135451;27;20894;-79
2022/11/25 09:15:11;;;;;;;0.30;0.30;;;6.80;99.90;;;;;;5135333;27;20878;-79
2022/11/25 09:17:38;;;;;;;1.40;0.63;;;6.80;99.90;;;;;;5135751;27;20442;-79
2022/11/25 09:20:06;;;;;;;1.13;0.43;;;6.90;99.90;;;;;;5135350;27;20484;-79
2022/11/25 09:22:33;;;;;;;2.67;0.40;;;7.00;99.90;;;;;;5135297;27;20454;-79
2022/11/25 09:24:59;;;;;;;0.47;0.47;;;7.10;99.90;;;;;;5135527;27;20463;-79
2022/11/25 09:27:26;;;;;;;0.50;0.50;;;7.20;99.90;;;;;;5135203;27;20847;-79
2022/11/25 09:29:53;;;;;;;0.40;0.33;;;7.20;99.90;;;;;;5135159;27;20938;-79
2022/11/25 09:32:21;;;;;;;0.70;0.50;;;7.30;99.90;;;;;;5136407;27;20429;-79
2022/11/25 09:34:48;;;;;;;1.50;0.50;;;7.40;99.90;;;;;;5137586;27;20462;-79
2022/11/25 09:37:15;;;;;;;0.30;0.30;;;7.40;99.90;;;;;;5134897;27;20813;-79
2022/11/25 09:39:42;;;;;;;0.40;0.30;;;7.40;99.90;;;;;;5135249;27;20458;-79
2022/11/25 09:48:18;;;;;;;0.30;0.30;;;7.60;99.90;;;;;;5134577;27;20811;-79
2022/11/25 09:50:54;;;;;;;0.83;0.50;;;7.60;99.90;;;;;;5134835;27;20423;-79
2022/11/25 09:53:33;;;;;;;0.40;0.40;;;7.60;99.90;;;;;;5134818;27;20430;-79
2022/11/25 09:56:03;;;;;;;0.40;0.40;;;7.60;99.90;;;;;;5134749;27;20929;-79
2022/11/25 09:58:35;;;;;;;0.50;0.30;;;7.70;99.90;;;;;;5135003;27;20446;-79
2022/11/25 10:01:05;;;;;;;0.40;0.30;;;7.70;99.90;;;;;;5134883;27;20463;-79
2022/11/25 10:03:39;;;;;;;1.30;0.87;;;7.80;99.90;;;;;;5134832;27;20529;-79
2022/11/25 10:06:13;;;;;;;3.23;0.47;;;8.00;99.90;;;;;;5134890;27;20433;-79
2022/11/25 10:08:42;;;;;;;0.50;0.50;;;8.20;99.90;;;;;;5134841;27;20791;-79
2022/11/25 10:11:18;;;;;;;1.47;0.43;;;8.30;99.90;;;;;;5134809;27;20466;-79
2022/11/25 10:13:52;;;;;;;0.40;0.30;;;8.50;99.90;;;;;;5134737;27;20477;-78
2022/11/25 10:16:32;;;;;;;2.97;0.40;;;8.60;99.90;;;;;;5134771;27;20431;-78
2022/11/25 10:19:02;;;;;;;0.40;0.40;;;8.80;99.90;;;;;;5134148;27;20957;-78
2022/11/25 10:21:29;;;;;;;0.37;0.37;;;8.90;99.90;;;;;;5134611;27;20466;-78
2022/11/25 10:23:56;;;;;;;1.97;0.53;;;8.90;99.90;;;;;;5134558;27;20473;-78
2022/11/25 10:26:30;;;;;;;0.40;0.40;;;9.00;99.90;;;;;;5134565;27;20445;-78
2022/11/25 10:29:17;;;;;;;0.93;0.50;;;9.20;99.90;;;;;;5134544;27;20423;-78
2022/11/25 10:31:44;;;;;;;2.93;0.73;;;9.40;99.90;;;;;;5134208;27;20430;-78
2022/11/25 10:34:23;;;;;;;0.50;0.50;;;9.60;99.90;;;;;;5134438;27;20462;-78
2022/11/25 10:36:52;;;;;;;0.70;0.50;;;9.70;99.90;;;;;;5134483;27;20430;-78
2022/11/25 10:39:23;;;;;;;0.40;0.30;;;9.80;99.90;;;;;;5134396;27;20475;-78
2022/11/25 10:41:55;;;;;;;0.40;0.40;;;9.70;99.90;;;;;;5134344;27;20470;-78
2022/11/25 10:44:26;;;;;;;0.40;0.33;;;9.60;99.90;;;;;;5133971;27;20987;-79
2022/11/25 10:47:08;;;;;;;0.40;0.40;;;9.60;99.90;;;;;;5134441;27;20431;-79
2022/11/25 10:49:44;;;;;;;0.50;0.40;;;9.50;99.90;;;;;;5134295;27;20438;-79
2022/11/25 10:52:13;;;;;;;1.03;0.60;;;9.40;99.90;;;;;;5134326;27;20419;-79
2022/11/25 10:54:40;;;;;;;0.90;0.67;;;9.30;99.90;;;;;;5134146;27;20564;-80
2022/11/25 10:57:18;;;;;;;0.30;0.20;;;9.30;99.90;;;;;;5134835;27;20444;-79
2022/11/25 10:59:56;;;;;;;0.90;0.50;;;9.30;99.90;;;;;;5134552;27;20433;-79
2022/11/25 11:02:26;;;;;;;0.60;0.40;;;9.20;99.90;;;;;;5138394;27;20477;-80
2022/11/25 11:05:00;;;;;;;0.40;0.30;;;9.10;99.90;;;;;;5138024;27;20458;-79
2022/11/25 11:07:29;;;;;;;1.27;0.50;;;9.20;99.90;;;;;;5138071;27;20913;-79
2022/11/25 11:10:16;;;;;;;0.40;0.30;;;9.10;99.90;;;;;;5138329;27;20456;-79
2022/11/25 11:12:54;;;;;;;0.30;0.27;;;9.00;99.90;;;;;;5138290;27;20518;-79
2022/11/25 11:15:23;;;;;;;0.40;0.37;;;9.00;99.90;;;;;;5138135;27;20462;-79
2022/11/25 11:17:50;;;;;;;0.50;0.30;;;9.00;99.90;;;;;;5137820;27;20958;-79
2022/11/25 11:20:22;;;;;;;0.43;0.43;;;8.90;99.90;;;;;;5137556;27;20489;-80
2022/11/25 11:22:55;;;;;;;0.40;0.40;;;9.00;99.90;;;;;;5138021;27;20470;-79
2022/11/25 11:25:31;;;;;;;0.30;0.30;;;8.90;99.90;;;;;;5138133;27;20463;-79
2022/11/25 11:27:58;;;;;;;3.10;0.40;;;8.90;99.90;;;;;;5138054;27;20893;-80
2022/11/25 11:30:27;;;;;;;0.40;0.40;;;8.80;99.90;;;;;;5137891;27;20438;-79
2022/11/25 11:33:05;;;;;;;0.40;0.33;;;8.80;99.90;;;;;;5138636;27;20445;-79
2022/11/25 11:35:52;;;;;;;0.30;0.30;;;8.70;99.90;;;;;;5137700;27;20462;-78
2022/11/25 11:38:31;;;;;;;0.40;0.30;;;8.70;99.90;;;;;;5137403;27;20449;-79
2022/11/25 11:41:08;;;;;;;0.50;0.50;;;8.80;99.90;;;;;;5137645;27;20425;-79
2022/11/25 11:43:46;;;;;;;0.60;0.40;;;8.80;99.90;;;;;;5137351;27;20917;-79
2022/11/25 11:46:27;;;;;;;0.30;0.30;;;8.70;99.90;;;;;;5137334;27;20787;-79
2022/11/25 11:49:15;;;;;;;0.50;0.50;;;8.70;99.90;;;;;;5137549;27;20437;-78
2022/11/25 11:51:53;;;;;;;1.37;1.03;;;8.60;99.90;;;;;;5137509;27;20431;-79
2022/11/25 11:54:29;;;;;;;1.07;0.33;;;8.70;99.90;;;;;;5137386;27;20463;-79
2022/11/25 11:57:00;;;;;;;0.40;0.40;;;8.60;99.90;;;;;;5137444;27;20445;-79
2022/11/25 11:59:47;;;;;;;0.70;0.50;;;8.70;99.90;;;;;;5137385;27;20787;-78
2022/11/25 12:02:30;;;;;;;0.40;0.40;;;8.80;99.90;;;;;;5137269;27;20462;-79
2022/11/25 12:05:06;;;;;;;0.30;0.30;;;8.80;99.90;;;;;;5136892;27;21004;-79
2022/11/25 12:07:37;;;;;;;0.30;0.30;;;9.00;99.90;;;;;;5136936;27;20427;-79
2022/11/25 12:10:08;;;;;;;0.80;0.43;;;9.00;99.90;;;;;;5136880;27;20894;-79
2022/11/25 12:12:38;;;;;;;1.33;0.50;;;9.10;99.90;;;;;;5135728;27;20898;-79
2022/11/25 12:15:14;;;;;;;0.30;0.30;;;9.10;99.90;;;;;;5136632;27;20969;-79
2022/11/25 12:17:45;;;;;;;0.33;0.30;;;9.20;99.90;;;;;;5136741;27;20955;-77
2022/11/25 12:20:18;;;;;;;0.43;0.30;;;9.30;99.90;;;;;;5136397;27;20479;-77
2022/11/25 12:22:50;;;;;;;0.60;0.30;;;9.40;99.90;;;;;;5136919;27;20470;-80
2022/11/25 12:25:21;;;;;;;0.53;0.50;;;9.40;99.90;;;;;;5136819;27;20481;-80
2022/11/25 12:27:53;;;;;;;0.40;0.30;;;9.50;99.90;;;;;;5136835;27;20436;-80
2022/11/25 12:30:22;;;;;;;0.60;0.30;;;9.50;99.90;;;;;;5136809;27;20431;-80
2022/11/25 12:33:03;;;;;;;0.30;0.30;;;9.50;99.90;;;;;;5136759;27;20451;-80
2022/11/25 12:35:45;;;;;;;0.83;0.77;;;9.40;99.90;;;;;;5136603;27;20471;-79
2022/11/25 12:38:22;;;;;;;0.40;0.40;;;9.40;99.90;;;;;;5136664;27;20426;-79
2022/11/25 12:40:56;;;;;;;0.40;0.30;;;9.30;99.90;;;;;;5136601;27;20427;-79
2022/11/25 12:43:28;;;;;;;0.30;0.30;;;9.20;99.90;;;;;;5136510;27;20806;-80
2022/11/25 12:46:05;;;;;;;0.77;0.77;;;9.20;99.90;;;;;;5136494;27;20427;-79
2022/11/25 12:48:37;;;;;;;0.40;0.40;;;9.20;99.90;;;;;;5136400;27;20426;-79
2022/11/25 12:51:16;;;;;;;0.60;0.60;;;9.20;99.90;;;;;;5136405;27;20427;-79
2022/11/25 12:53:51;;;;;;;0.40;0.37;;;9.30;99.90;;;;;;5136286;27;20784;-79
2022/11/25 12:56:24;;;;;;;0.43;0.40;;;9.30;99.90;;;;;;5135990;27;20431;-80
2022/11/25 12:59:07;;;;;;;0.40;0.40;;;9.30;99.90;;;;;;5136220;27;20437;-80
2022/11/25 13:01:49;;;;;;;0.53;0.50;;;9.30;99.90;;;;;;5136075;27;20466;-79
2022/11/25 13:04:47;;;;;;;0.50;0.50;;;9.40;99.90;;;;;;5136061;27;20466;-79
2022/11/25 13:07:37;;;;;;;0.70;0.37;;;9.40;99.90;;;;;;5136267;27;20427;-80
2022/11/25 13:10:42;;;;;;;0.50;0.50;;;9.30;99.90;;;;;;5136098;27;20423;-79
2022/11/25 13:13:50;;;;;;;0.30;0.30;;;9.30;99.90;;;;;;5119729;27;20474;-79
2022/11/25 13:16:19;;;;;;;2.33;0.50;;;9.20;99.90;;;;;;5072364;28;20441;-79
2022/11/25 13:18:46;;;;;;;1.27;0.40;;;9.20;99.90;;;;;;5126073;27;20511;-80
2022/11/25 13:21:15;;;;;;;0.80;0.57;;;9.20;99.90;;;;;;5135448;27;20928;-80
2022/11/25 13:23:46;;;;;;;0.70;0.50;;;9.30;99.90;;;;;;5135454;27;20465;-79
2022/11/25 13:26:36;;;;;;;1.57;0.97;;;9.30;99.90;;;;;;5135748;27;20461;-80
2022/11/25 13:30:03;;;;;;;1.97;0.60;;;9.30;99.90;;;;;;5136282;27;20447;-79